Time;durP1;ratioP1;P1;durP2;ratioP2;P2;SDS_P1;SDS_P2;PMS_P1;PMS_P2;Temp;Humidity;BMP_temperature;BMP_pressure;BME280_temperature;BME280_humidity;BME280_pressure;Samples;Min_cycle;Max_cycle;Signal;HPM_P1;HPM_P2
2023/06/04 00:01:04;;;;;;;6.10;1.40;;;;;;;6.53;69.13;99883.59;101272;285;22670;-34
2023/06/04 00:03:30;;;;;;;3.90;1.60;;;;;;;6.56;69.79;99885.77;101382;285;22705;-31
2023/06/04 00:05:56;;;;;;;7.20;1.30;;;;;;;6.61;69.84;99886.38;101354;285;23007;-33
2023/06/04 00:08:21;;;;;;;2.60;1.30;;;;;;;6.63;69.59;99881.48;101346;296;22574;-28
2023/06/04 00:10:47;;;;;;;3.20;1.00;;;;;;;6.63;69.47;99880.52;101359;296;22988;-30
2023/06/04 00:13:13;;;;;;;8.80;1.60;;;;;;;6.64;69.68;99884.67;101313;296;22776;-30
2023/06/04 00:15:39;;;;;;;3.10;1.20;;;;;;;6.63;69.66;99886.34;101314;285;22638;-29
2023/06/04 00:18:04;;;;;;;2.80;1.50;;;;;;;6.58;69.48;99886.55;101310;296;22668;-32
2023/06/04 00:20:30;;;;;;;3.90;1.10;;;;;;;6.52;69.64;99884.23;101407;296;24116;-33
2023/06/04 00:22:56;;;;;;;2.80;1.20;;;;;;;6.48;69.48;99881.44;101256;296;22707;-29
2023/06/04 00:25:21;;;;;;;4.80;1.70;;;;;;;6.41;69.60;99877.52;101419;285;22676;-29
2023/06/04 00:27:47;;;;;;;2.70;1.10;;;;;;;6.35;69.82;99875.55;101365;296;22576;-33
2023/06/04 00:30:14;;;;;;;5.40;1.50;;;;;;;6.29;69.99;99874.17;101342;285;24114;-29
2023/06/04 01:12:50;;;;;;;13.30;3.60;;;;;;;5.95;74.28;99857.73;101275;293;558357;-35
2023/06/04 01:15:15;;;;;;;3.70;2.10;;;;;;;6.00;74.31;99855.27;101059;293;538208;-32
2023/06/04 01:17:42;;;;;;;2.10;1.10;;;;;;;6.00;74.68;99851.16;101508;293;22572;-31
2023/06/04 01:20:28;;;;;;;2.70;1.50;;;;;;;6.05;74.61;99850.25;101471;294;23822;-28
2023/06/04 01:23:05;;;;;;;3.10;1.50;;;;;;;6.05;74.69;99850.34;101507;293;22587;-31
2023/06/04 01:25:38;;;;;;;5.20;1.60;;;;;;;6.03;74.47;99853.00;101540;293;22600;-33
2023/06/04 01:28:06;;;;;;;4.90;1.90;;;;;;;5.99;73.97;99852.01;101636;293;22579;-29
2023/06/04 01:30:36;;;;;;;6.50;2.40;;;;;;;5.94;73.61;99853.77;101541;293;22879;-35
2023/06/04 01:33:02;;;;;;;3.70;1.80;;;;;;;5.88;73.43;99851.80;101604;281;24345;-29
2023/06/04 01:35:28;;;;;;;2.70;1.70;;;;;;;5.84;73.51;99849.91;101622;293;24139;-29
2023/06/04 01:37:55;;;;;;;11.60;1.50;;;;;;;5.78;73.48;99852.62;101536;293;22979;-29
2023/06/04 01:40:21;;;;;;;4.00;1.70;;;;;;;5.74;73.25;99850.76;101619;293;22998;-33
2023/06/04 01:42:47;;;;;;;4.30;2.00;;;;;;;5.69;73.56;99850.78;101571;293;24137;-32
2023/06/04 01:45:12;;;;;;;6.50;2.70;;;;;;;5.71;74.08;99851.77;101478;293;23008;-37
2023/06/04 01:47:38;;;;;;;8.20;2.20;;;;;;;5.74;73.83;99851.32;101476;293;24258;-35
2023/06/04 01:50:05;;;;;;;2.70;1.40;;;;;;;5.68;73.65;99846.95;101502;293;24136;-33
2023/06/04 01:52:32;;;;;;;5.50;2.30;;;;;;;5.69;73.76;99843.85;101304;293;23034;-32
2023/06/04 01:54:59;;;;;;;3.40;1.30;;;;;;;5.64;73.98;99845.42;101504;281;24141;-31
2023/06/04 01:57:25;;;;;;;6.30;2.50;;;;;;;5.60;74.04;99842.73;101343;294;22573;-32
2023/06/04 01:59:51;;;;;;;7.00;2.90;;;;;;;5.56;74.06;99840.14;101301;294;22587;-29
2023/06/04 02:02:16;;;;;;;7.80;2.10;;;;;;;5.51;74.50;99841.17;101508;293;22571;-29
2023/06/04 02:04:42;;;;;;;4.10;2.10;;;;;;;5.53;75.24;99841.09;101639;293;22765;-33
2023/06/04 02:07:09;;;;;;;12.00;2.40;;;;;;;5.55;75.60;99843.74;101482;293;22670;-28
2023/06/04 02:09:36;;;;;;;4.40;1.90;;;;;;;5.55;76.13;99841.88;101583;293;24138;-29
2023/06/04 02:12:01;;;;;;;3.50;1.80;;;;;;;5.53;75.86;99841.27;101469;293;23007;-33
2023/06/04 02:14:27;;;;;;;5.30;2.40;;;;;;;5.48;75.48;99840.60;101534;293;22665;-37
2023/06/04 02:16:53;;;;;;;2.50;1.60;;;;;;;5.44;75.48;99841.48;101442;293;22570;-34
2023/06/04 02:19:20;;;;;;;2.80;1.80;;;;;;;5.37;76.09;99848.90;101512;293;23026;-28
2023/06/04 02:21:46;;;;;;;2.60;1.50;;;;;;;5.35;75.62;99847.71;101458;293;22849;-33
2023/06/04 02:24:12;;;;;;;3.40;1.80;;;;;;;5.33;75.43;99849.40;101444;293;22571;-32
2023/06/04 02:26:39;;;;;;;4.00;2.30;;;;;;;5.28;75.84;99849.34;101411;293;22887;-30
2023/06/04 02:29:05;;;;;;;3.30;2.30;;;;;;;5.23;75.64;99848.01;101350;293;22564;-27
2023/06/04 02:31:31;;;;;;;7.90;3.10;;;;;;;5.17;76.16;99846.17;101406;295;23007;-32
2023/06/04 02:33:57;;;;;;;6.60;1.90;;;;;;;5.10;77.59;99846.27;101377;293;22661;-28
2023/06/04 02:36:23;;;;;;;6.60;3.00;;;;;;;5.04;78.36;99844.34;101316;293;22671;-30
2023/06/04 02:38:48;;;;;;;13.30;3.20;;;;;;;4.94;78.59;99843.38;101398;293;22584;-34
2023/06/04 02:41:14;;;;;;;9.50;3.10;;;;;;;4.87;79.88;99846.16;101375;293;22655;-33
2023/06/04 02:43:40;;;;;;;16.50;4.50;;;;;;;4.82;80.03;99849.39;101635;293;22984;-33
2023/06/04 02:46:06;;;;;;;9.60;5.80;;;;;;;4.78;78.68;99849.03;101338;293;24035;-31
2023/06/04 02:48:31;;;;;;;5.30;3.70;;;;;;;4.75;78.11;99850.03;101463;293;22879;-33
2023/06/04 02:50:57;;;;;;;3.80;2.80;;;;;;;4.72;78.70;99851.24;101376;293;22796;-32
2023/06/04 02:53:23;;;;;;;7.60;4.80;;;;;;;4.72;79.79;99850.20;101374;293;22882;-34
2023/06/04 02:55:51;;;;;;;7.10;5.10;;;;;;;4.70;79.21;99846.25;101428;307;22875;-29
2023/06/04 02:58:17;;;;;;;11.10;8.70;;;;;;;4.71;78.57;99846.55;101315;293;23031;-32
2023/06/04 03:00:43;;;;;;;9.50;6.60;;;;;;;4.76;79.04;99846.38;101300;293;22883;-28
2023/06/04 03:03:09;;;;;;;19.70;7.80;;;;;;;4.84;79.30;99845.59;101412;293;22565;-28
2023/06/04 03:05:36;;;;;;;8.40;4.70;;;;;;;4.95;79.38;99843.64;101527;293;22645;-28
2023/06/04 03:08:03;;;;;;;6.80;4.80;;;;;;;5.07;79.40;99843.84;101458;293;22642;-30
2023/06/04 03:10:29;;;;;;;9.00;3.40;;;;;;;5.27;79.53;99846.02;101351;293;22650;-32
2023/06/04 03:12:55;;;;;;;11.90;5.90;;;;;;;5.53;79.45;99842.77;101450;293;22670;-35
2023/06/04 03:15:21;;;;;;;7.60;4.40;;;;;;;5.70;79.17;99845.16;104732;294;22347;-29
2023/06/04 03:19:06;;;;;;;7.40;5.00;;;;;;;5.91;79.00;99842.85;101171;298;558548;-34
2023/06/04 03:21:32;;;;;;;7.20;3.70;;;;;;;5.99;78.78;99846.41;101131;298;22889;-33
2023/06/04 03:23:58;;;;;;;5.30;3.40;;;;;;;6.27;79.03;99842.52;101179;299;22572;-28
2023/06/04 03:26:23;;;;;;;5.70;3.30;;;;;;;6.74;78.94;99842.42;101247;299;22853;-35
2023/06/04 03:28:49;;;;;;;5.60;3.50;;;;;;;7.19;78.32;99842.86;101177;299;22684;-29
2023/06/04 03:31:14;;;;;;;14.00;4.30;;;;;;;7.62;77.62;99836.80;100922;299;576525;-33
2023/06/04 03:33:40;;;;;;;10.50;3.70;;;;;;;8.04;76.98;99835.96;101425;297;22885;-30
2023/06/04 03:36:06;;;;;;;8.60;2.10;;;;;;;8.49;76.28;99843.28;101282;297;25206;-34
2023/06/04 03:38:31;;;;;;;4.90;2.40;;;;;;;8.91;75.29;99844.77;101250;298;22805;-34
2023/06/04 03:40:57;;;;;;;4.50;2.00;;;;;;;9.32;74.33;99841.62;101293;297;22959;-30
2023/06/04 03:43:23;;;;;;;7.60;2.30;;;;;;;9.68;73.14;99840.81;101356;298;22594;-35
2023/06/04 03:45:49;;;;;;;3.80;1.90;;;;;;;10.02;72.35;99844.69;101394;297;22613;-33
2023/06/04 03:48:15;;;;;;;7.20;2.10;;;;;;;10.39;70.86;99844.12;101327;298;22814;-33
2023/06/04 03:50:41;;;;;;;5.90;2.50;;;;;;;10.57;69.48;99849.48;101312;297;22665;-29
2023/06/04 03:53:07;;;;;;;4.60;2.20;;;;;;;10.75;69.08;99850.83;101338;297;22878;-29
2023/06/04 03:55:33;;;;;;;7.20;2.00;;;;;;;11.07;69.57;99850.92;101236;297;24498;-33
2023/06/04 03:57:59;;;;;;;3.50;1.60;;;;;;;11.48;68.02;99853.15;101323;297;22602;-33
2023/06/04 04:00:25;;;;;;;2.50;1.80;;;;;;;11.70;64.95;99852.21;101407;298;24143;-30
2023/06/04 04:02:51;;;;;;;3.80;2.20;;;;;;;11.77;64.14;99852.95;101461;297;22575;-33
2023/06/04 04:05:16;;;;;;;2.60;1.60;;;;;;;12.03;64.45;99846.95;101251;297;22577;-35
2023/06/04 04:07:42;;;;;;;2.90;2.00;;;;;;;12.47;64.34;99850.65;101415;297;22688;-36
2023/06/04 04:10:08;;;;;;;2.20;1.40;;;;;;;12.82;63.01;99851.50;101390;298;22628;-34
2023/06/04 04:12:33;;;;;;;4.20;1.80;;;;;;;13.07;62.66;99853.64;101317;297;22676;-29
2023/06/04 04:14:59;;;;;;;3.50;1.70;;;;;;;13.17;61.92;99853.27;101233;297;22575;-29
2023/06/04 04:17:25;;;;;;;4.70;1.70;;;;;;;13.01;61.12;99855.79;101332;297;24133;-33
2023/06/04 04:19:51;;;;;;;3.30;1.50;;;;;;;12.96;60.96;99853.07;101291;297;22636;-35
2023/06/04 04:22:17;;;;;;;4.00;1.60;;;;;;;13.14;59.94;99854.64;101321;298;22992;-29
2023/06/04 04:24:43;;;;;;;5.30;1.20;;;;;;;13.22;58.75;99850.21;101347;297;22663;-29
2023/06/04 04:27:11;;;;;;;8.70;1.30;;;;;;;13.24;57.81;99852.27;101374;298;22902;-29
2023/06/04 04:29:37;;;;;;;6.10;1.70;;;;;;;13.27;57.68;99851.90;101372;297;22583;-29
2023/06/04 04:32:11;;;;;;;3.20;1.40;;;;;;;13.21;57.72;99851.23;101333;298;22668;-33
2023/06/04 04:34:39;;;;;;;5.70;2.00;;;;;;;12.90;57.72;99852.42;101322;297;22810;-33
2023/06/04 04:37:08;;;;;;;5.40;1.80;;;;;;;12.68;58.06;99852.81;101451;298;22670;-35
2023/06/04 04:39:34;;;;;;;4.80;2.10;;;;;;;12.52;58.12;99855.24;101321;298;22683;-30
2023/06/04 04:42:00;;;;;;;3.50;1.20;;;;;;;12.34;58.70;99849.45;101296;297;22676;-33
2023/06/04 04:44:26;;;;;;;5.40;1.40;;;;;;;12.28;58.90;99851.82;101196;297;22883;-31
2023/06/04 04:46:51;;;;;;;4.60;1.80;;;;;;;12.35;59.07;99853.23;101313;298;22687;-30
2023/06/04 04:49:17;;;;;;;1.50;0.90;;;;;;;12.41;59.10;99853.39;101375;297;23124;-34
2023/06/04 04:51:43;;;;;;;16.60;1.50;;;;;;;12.34;59.13;99854.67;101322;297;22691;-30
2023/06/04 04:54:08;;;;;;;4.00;1.10;;;;;;;12.34;59.35;99859.48;101263;298;22852;-33
2023/06/04 04:56:35;;;;;;;3.20;1.80;;;;;;;12.61;59.41;99859.81;101289;297;22882;-33
2023/06/04 04:59:01;;;;;;;4.60;1.80;;;;;;;12.87;59.12;99861.60;101285;297;24254;-34
2023/06/04 05:01:27;;;;;;;3.60;1.00;;;;;;;12.96;59.10;99864.38;101333;298;22657;-29
2023/06/04 05:03:52;;;;;;;3.30;1.40;;;;;;;13.14;58.58;99861.89;101270;298;22543;-29
2023/06/04 05:06:18;;;;;;;5.30;1.50;;;;;;;13.33;58.25;99860.90;101271;298;24161;-33
2023/06/04 05:08:44;;;;;;;4.30;2.00;;;;;;;13.25;58.06;99863.52;101313;297;23013;-35
2023/06/04 05:11:10;;;;;;;2.90;1.40;;;;;;;13.12;58.07;99863.79;101383;298;22696;-31
2023/06/04 05:13:36;;;;;;;2.70;1.70;;;;;;;12.96;58.47;99860.23;101290;297;22614;-31
2023/06/04 05:16:06;;;;;;;4.20;1.50;;;;;;;12.79;59.01;99861.44;101347;297;22563;-30
2023/06/04 05:18:41;;;;;;;6.80;1.60;;;;;;;12.69;59.42;99862.52;101338;286;24148;-29
2023/06/04 05:21:07;;;;;;;4.20;1.60;;;;;;;12.58;59.38;99863.16;101272;298;22572;-30
2023/06/04 05:23:37;;;;;;;5.40;0.70;;;;;;;12.52;59.82;99863.52;101386;289;23126;-34
2023/06/04 05:26:03;;;;;;;2.30;1.40;;;;;;;12.48;60.05;99863.98;101456;297;24208;-36
2023/06/04 05:28:29;;;;;;;2.60;0.70;;;;;;;12.65;60.28;99865.80;101337;297;22576;-34
2023/06/04 05:30:58;;;;;;;7.40;0.90;;;;;;;12.95;60.67;99867.41;101420;297;22679;-34
2023/06/04 05:33:28;;;;;;;3.10;1.30;;;;;;;13.51;60.43;99862.48;101373;297;22585;-31
2023/06/04 05:35:54;;;;;;;3.60;1.20;;;;;;;13.99;59.91;99859.73;101388;297;22813;-30
2023/06/04 05:38:20;;;;;;;3.70;1.20;;;;;;;14.35;58.37;99858.58;101309;297;22527;-33
2023/06/04 05:40:46;;;;;;;1.20;0.60;;;;;;;14.59;58.16;99861.47;101407;297;22886;-34
2023/06/04 05:43:13;;;;;;;6.00;0.90;;;;;;;14.89;57.45;99862.69;101336;297;22991;-31
2023/06/04 05:45:39;;;;;;;2.90;0.80;;;;;;;15.14;56.99;99867.66;101409;297;22594;-31
2023/06/04 05:48:05;;;;;;;4.30;1.20;;;;;;;15.43;56.01;99872.57;101313;297;22639;-33
2023/06/04 05:50:31;;;;;;;2.00;1.10;;;;;;;15.80;56.15;99870.48;101416;298;22703;-31
2023/06/04 05:52:57;;;;;;;1.30;0.70;;;;;;;16.23;54.58;99868.52;101310;298;22658;-34
2023/06/04 05:55:22;;;;;;;1.70;0.90;;;;;;;16.58;53.99;99866.95;101418;297;24144;-34
2023/06/04 05:57:51;;;;;;;8.00;0.90;;;;;;;16.78;51.07;99869.63;101272;297;23018;-31
2023/06/04 06:00:17;;;;;;;4.90;1.60;;;;;;;17.02;51.56;99869.57;101479;297;24038;-33
2023/06/04 06:02:45;;;;;;;2.80;0.90;;;;;;;17.31;50.37;99869.14;101399;297;22883;-38
2023/06/04 06:05:10;;;;;;;1.30;0.70;;;;;;;17.53;48.90;99870.38;101398;297;22580;-31
2023/06/04 06:07:36;;;;;;;4.20;1.00;;;;;;;17.64;48.49;99871.98;101376;297;22658;-31
2023/06/04 06:10:02;;;;;;;7.00;1.10;;;;;;;17.76;46.14;99871.94;101315;297;24118;-31
2023/06/04 06:12:28;;;;;;;3.10;0.90;;;;;;;17.76;45.48;99873.26;101426;298;22573;-35
2023/06/04 06:14:54;;;;;;;3.10;0.80;;;;;;;17.61;44.23;99878.91;101320;298;22577;-37
2023/06/04 06:17:19;;;;;;;2.50;1.10;;;;;;;17.72;45.08;99879.42;101407;297;22571;-32
2023/06/04 06:19:48;;;;;;;1.80;0.80;;;;;;;18.02;44.53;99874.47;101373;297;22602;-36
2023/06/04 06:22:15;;;;;;;7.90;1.30;;;;;;;18.31;44.51;99876.64;101400;297;22956;-32
2023/06/04 06:24:41;;;;;;;2.10;1.00;;;;;;;18.58;43.89;99877.75;101380;297;22576;-31
2023/06/04 06:27:07;;;;;;;2.40;1.10;;;;;;;18.78;43.06;99880.84;101408;298;22911;-31
2023/06/04 06:29:33;;;;;;;5.50;1.30;;;;;;;18.93;42.21;99882.91;101323;297;22576;-40
2023/06/04 06:31:59;;;;;;;3.80;1.00;;;;;;;19.11;42.45;99885.84;101332;297;22666;-34
2023/06/04 06:34:25;;;;;;;8.80;0.90;;;;;;;19.12;41.38;99886.20;101425;297;22819;-35
2023/06/04 06:36:50;;;;;;;1.50;0.80;;;;;;;19.10;41.48;99886.06;101303;298;24094;-33
2023/06/04 06:39:16;;;;;;;1.80;0.70;;;;;;;19.14;40.84;99889.68;101261;297;22609;-32
2023/06/04 06:41:42;;;;;;;1.30;0.80;;;;;;;19.15;41.04;99887.23;101175;288;22577;-31
2023/06/04 06:44:07;;;;;;;1.50;0.70;;;;;;;19.33;40.91;99888.54;101325;298;22690;-32
2023/06/04 06:46:33;;;;;;;1.30;0.70;;;;;;;19.52;40.92;99889.33;101294;297;25282;-35
2023/06/04 06:48:59;;;;;;;0.90;0.50;;;;;;;19.69;40.53;99888.44;101442;298;22666;-33
2023/06/04 06:51:25;;;;;;;1.80;0.60;;;;;;;19.81;40.65;99887.70;101279;297;22701;-34
2023/06/04 06:53:51;;;;;;;2.70;0.80;;;;;;;19.86;40.29;99885.79;101366;298;22595;-30
2023/06/04 06:56:17;;;;;;;1.30;0.60;;;;;;;19.93;39.99;99886.67;101360;297;22665;-36
2023/06/04 06:58:44;;;;;;;1.80;0.80;;;;;;;20.01;40.12;99887.65;101271;297;24183;-32
2023/06/04 07:01:10;;;;;;;9.30;1.00;;;;;;;20.31;40.09;99887.26;101395;298;25354;-36
2023/06/04 07:03:36;;;;;;;1.70;0.80;;;;;;;20.47;38.99;99888.17;101334;297;22808;-33
2023/06/04 07:06:02;;;;;;;4.50;0.60;;;;;;;20.38;38.22;99888.64;101429;297;22569;-32
2023/06/04 07:08:28;;;;;;;1.10;0.50;;;;;;;20.34;38.47;99887.97;101351;297;24144;-34
2023/06/04 07:10:54;;;;;;;1.50;0.80;;;;;;;20.28;37.57;99893.27;101384;297;23014;-36
2023/06/04 07:13:19;;;;;;;2.20;0.80;;;;;;;20.16;38.23;99890.34;101349;297;23010;-35
2023/06/04 07:15:45;;;;;;;7.80;0.70;;;;;;;20.30;38.30;99888.11;101289;297;22658;-35
2023/06/04 07:18:11;;;;;;;1.80;0.50;;;;;;;20.66;37.96;99881.48;101308;297;22573;-32
2023/06/04 07:20:37;;;;;;;1.70;0.80;;;;;;;20.78;36.70;99880.89;101262;298;22592;-34
2023/06/04 07:23:02;;;;;;;6.10;0.70;;;;;;;20.88;36.39;99879.44;101353;297;22656;-36
2023/06/04 07:25:28;;;;;;;2.40;1.00;;;;;;;21.03;36.42;99878.70;101303;298;22693;-36
2023/06/04 07:27:57;;;;;;;3.10;1.50;;;;;;;21.09;35.20;99880.27;101267;297;22575;-40
2023/06/04 07:30:24;;;;;;;2.80;0.60;;;;;;;20.99;34.60;99878.71;101377;298;22994;-35
2023/06/04 07:32:51;;;;;;;2.70;1.10;;;;;;;20.97;35.41;99880.23;101364;299;24075;-31
2023/06/04 07:35:17;;;;;;;16.10;9.40;;;;;;;21.17;34.50;99878.99;101221;297;22988;-31
2023/06/04 07:37:44;;;;;;;6.10;3.70;;;;;;;20.95;32.88;99877.73;101410;297;22544;-33
2023/06/04 07:40:11;;;;;;;2.20;0.60;;;;;;;20.64;33.03;99882.39;101329;297;22591;-35
2023/06/04 07:42:37;;;;;;;4.30;1.00;;;;;;;20.58;33.71;99887.54;101381;297;22923;-30
2023/06/04 07:45:03;;;;;;;3.20;1.00;;;;;;;20.82;33.69;99886.56;101390;297;22587;-30
2023/06/04 07:47:29;;;;;;;1.90;1.70;;;;;;;21.09;33.84;99885.73;101366;297;23013;-31
2023/06/04 07:49:55;;;;;;;2.20;1.30;;;;;;;21.51;33.60;99886.80;101351;297;22885;-36
2023/06/04 07:52:21;;;;;;;2.20;0.50;;;;;;;21.60;32.54;99885.80;101305;297;22576;-32
2023/06/04 07:54:47;;;;;;;4.90;2.30;;;;;;;21.73;32.08;99884.19;101214;297;22994;-36
2023/06/04 07:57:13;;;;;;;6.70;4.70;;;;;;;21.81;30.64;99878.73;101270;297;22576;-33
2023/06/04 07:59:39;;;;;;;0.90;0.60;;;;;;;21.59;30.94;99882.13;101351;298;23498;-34
2023/06/04 08:02:05;;;;;;;1.00;0.60;;;;;;;21.71;31.41;99883.40;101308;297;22574;-39
2023/06/04 08:04:31;;;;;;;1.30;0.70;;;;;;;21.92;31.07;99881.63;101372;297;22675;-33
2023/06/04 08:06:57;;;;;;;0.90;0.50;;;;;;;22.23;30.84;99880.77;101384;297;22574;-30
2023/06/04 08:09:23;;;;;;;5.40;0.50;;;;;;;22.39;29.96;99881.45;101351;297;22888;-34
2023/06/04 08:11:49;;;;;;;2.40;0.60;;;;;;;22.49;29.91;99885.45;101277;298;22613;-36
2023/06/04 08:14:14;;;;;;;4.80;0.60;;;;;;;22.56;30.01;99883.20;101339;297;22687;-35
2023/06/04 08:16:40;;;;;;;1.00;0.50;;;;;;;22.57;30.14;99884.37;101299;297;22573;-35
2023/06/04 08:19:07;;;;;;;1.30;0.60;;;;;;;22.77;30.48;99883.23;101279;297;22576;-36
2023/06/04 08:21:33;;;;;;;1.10;0.50;;;;;;;23.05;29.45;99880.77;101338;297;22821;-36
2023/06/04 08:23:59;;;;;;;1.50;0.60;;;;;;;22.96;29.45;99881.98;101321;297;22882;-31
2023/06/04 08:26:26;;;;;;;36.70;18.70;;;;;;;23.11;29.34;99880.02;101335;297;22890;-32
2023/06/04 08:28:52;;;;;;;4.10;2.10;;;;;;;23.21;29.44;99876.13;101329;297;22577;-34
2023/06/04 08:31:18;;;;;;;4.10;0.30;;;;;;;23.29;29.54;99876.31;101280;297;22669;-31
2023/06/04 08:33:47;;;;;;;1.10;0.90;;;;;;;23.10;28.69;99876.36;101305;297;22852;-34
2023/06/04 08:36:14;;;;;;;4.20;0.90;;;;;;;23.03;29.44;99876.94;101348;297;22676;-30
2023/06/04 08:38:40;;;;;;;1.60;0.50;;;;;;;23.18;29.01;99881.98;101404;298;24210;-30
2023/06/04 08:41:13;;;;;;;2.60;0.60;;;;;;;23.40;29.15;99885.41;101241;297;22583;-37
2023/06/04 08:43:38;;;;;;;0.70;0.60;;;;;;;23.73;28.60;99882.92;101264;298;25239;-34
2023/06/04 08:46:06;;;;;;;1.10;0.70;;;;;;;23.68;28.31;99883.69;101307;298;22579;-38
2023/06/04 08:48:32;;;;;;;1.20;0.70;;;;;;;23.63;28.64;99884.86;101313;288;22991;-36
2023/06/04 08:50:57;;;;;;;1.00;0.60;;;;;;;23.69;28.58;99886.58;101318;285;24149;-36
2023/06/04 08:53:23;;;;;;;2.70;0.60;;;;;;;23.99;28.08;99887.46;101358;297;22572;-35
2023/06/04 08:55:50;;;;;;;5.80;0.60;;;;;;;23.89;27.78;99888.83;101245;298;22581;-34
2023/06/04 08:58:15;;;;;;;0.60;0.30;;;;;;;23.69;28.37;99897.19;101371;297;22917;-34
2023/06/04 09:00:41;;;;;;;1.40;0.90;;;;;;;23.78;28.52;99895.73;101292;297;22583;-34
2023/06/04 09:03:07;;;;;;;1.20;0.50;;;;;;;24.04;28.50;99896.08;101463;298;22574;-36
2023/06/04 09:05:32;;;;;;;5.40;1.90;;;;;;;24.36;28.24;99890.00;101453;297;22574;-31
2023/06/04 09:08:00;;;;;;;3.30;0.50;;;;;;;24.51;28.34;99890.83;101164;298;22639;-35
2023/06/04 09:10:26;;;;;;;0.70;0.50;;;;;;;24.78;27.77;99892.11;101341;297;22883;-31
2023/06/04 09:12:51;;;;;;;0.90;0.40;;;;;;;24.87;26.82;99886.91;101290;297;22977;-34
2023/06/04 09:15:17;;;;;;;2.30;0.70;;;;;;;24.64;26.59;99890.70;101406;297;24260;-34
2023/06/04 09:17:43;;;;;;;4.10;2.80;;;;;;;24.61;27.28;99891.52;101435;297;22886;-30
2023/06/04 09:20:27;;;;;;;3.60;0.60;;;;;;;24.58;26.69;99891.31;101341;297;22582;-30
2023/06/04 09:22:53;;;;;;;1.30;0.90;;;;;;;24.29;26.70;99895.65;101384;298;25411;-30
2023/06/04 09:25:26;;;;;;;3.00;1.50;;;;;;;24.39;26.75;99893.46;101430;297;22889;-30
2023/06/04 09:27:54;;;;;;;20.50;14.10;;;;;;;24.50;27.23;99892.09;101402;297;22577;-35
2023/06/04 09:30:20;;;;;;;1.80;0.70;;;;;;;24.52;26.41;99895.55;101415;297;24355;-35
2023/06/04 09:32:45;;;;;;;1.90;0.70;;;;;;;24.46;25.69;99899.19;101331;297;22886;-35
2023/06/04 09:35:18;;;;;;;0.90;0.30;;;;;;;24.61;25.79;99898.13;101306;297;22570;-30
2023/06/04 09:37:56;;;;;;;1.40;0.70;;;;;;;24.89;25.52;99896.41;101295;298;25216;-33
2023/06/04 09:40:22;;;;;;;0.70;0.50;;;;;;;25.25;25.07;99889.27;101307;298;22576;-31
2023/06/04 09:42:54;;;;;;;1.50;0.80;;;;;;;25.57;24.64;99890.33;101359;298;22786;-32
2023/06/04 09:45:29;;;;;;;0.60;0.50;;;;;;;25.69;24.10;99888.44;101322;297;25220;-37
2023/06/04 09:47:54;;;;;;;2.20;0.90;;;;;;;25.76;24.55;99893.73;101439;297;22579;-35
2023/06/04 09:50:30;;;;;;;10.80;0.50;;;;;;;25.78;24.24;99892.29;101316;297;24147;-37
2023/06/04 09:52:56;;;;;;;1.20;0.80;;;;;;;25.62;24.21;99889.58;101344;298;22677;-33
2023/06/04 09:55:22;;;;;;;1.60;0.70;;;;;;;25.75;24.67;99887.58;101444;298;22577;-35
2023/06/04 09:57:49;;;;;;;5.30;0.50;;;;;;;25.80;24.84;99881.34;101254;298;22855;-34
2023/06/04 10:00:17;;;;;;;0.50;0.30;;;;;;;26.08;24.48;99880.48;101260;297;22889;-35
2023/06/04 10:02:44;;;;;;;0.50;0.30;;;;;;;26.31;24.44;99875.60;101379;297;26301;-36
2023/06/04 10:05:11;;;;;;;3.00;0.60;;;;;;;26.70;24.14;99873.82;101259;298;23957;-36
2023/06/04 10:07:37;;;;;;;2.00;0.40;;;;;;;26.84;23.68;99874.27;101330;297;22674;-36
2023/06/04 10:10:04;;;;;;;2.40;0.30;;;;;;;26.97;23.64;99875.23;101362;297;22543;-36
2023/06/04 10:12:31;;;;;;;1.10;0.50;;;;;;;27.00;23.09;99874.53;101389;297;22677;-31
2023/06/04 10:14:59;;;;;;;0.70;0.60;;;;;;;26.84;23.06;99873.27;101156;298;23034;-35
2023/06/04 10:17:24;;;;;;;0.90;0.50;;;;;;;26.41;22.94;99866.55;101373;297;24149;-31
2023/06/04 10:19:54;;;;;;;1.00;0.40;;;;;;;26.17;23.09;99869.50;101461;298;22882;-35
2023/06/04 10:22:20;;;;;;;4.20;1.40;;;;;;;25.88;22.95;99868.81;101371;297;22579;-35
2023/06/04 10:24:46;;;;;;;1.20;0.80;;;;;;;25.93;23.44;99866.89;101265;297;22910;-31
2023/06/04 10:27:12;;;;;;;0.60;0.40;;;;;;;26.37;23.57;99865.14;101298;297;24112;-31
2023/06/04 10:29:39;;;;;;;1.40;0.70;;;;;;;26.76;23.16;99861.02;101350;297;22583;-32
2023/06/04 10:32:05;;;;;;;4.30;0.50;;;;;;;26.90;23.10;99858.83;101317;298;26307;-36
2023/06/04 10:34:30;;;;;;;0.80;0.40;;;;;;;26.86;23.25;99858.92;101344;297;22678;-32
2023/06/04 10:36:57;;;;;;;0.80;0.70;;;;;;;26.90;22.96;99864.73;101315;297;22762;-31
2023/06/04 10:39:27;;;;;;;1.40;0.70;;;;;;;26.69;23.01;99862.81;101144;298;22606;-33
2023/06/04 10:42:05;;;;;;;1.30;0.70;;;;;;;26.42;23.26;99862.30;101347;297;22582;-37
2023/06/04 10:44:32;;;;;;;0.80;0.40;;;;;;;26.34;23.46;99861.48;101124;297;22665;-32
2023/06/04 10:46:58;;;;;;;1.20;0.60;;;;;;;26.58;23.22;99858.95;101207;298;22676;-36
2023/06/04 10:49:27;;;;;;;1.40;0.50;;;;;;;26.68;23.24;99858.73;101283;297;22581;-35
2023/06/04 10:51:56;;;;;;;9.30;0.70;;;;;;;26.39;23.61;99857.52;101389;297;24039;-32
2023/06/04 10:54:25;;;;;;;1.00;0.40;;;;;;;26.34;23.38;99857.09;101379;297;22813;-37
2023/06/04 10:56:52;;;;;;;3.50;0.50;;;;;;;26.15;23.37;99857.24;101277;298;22576;-36
2023/06/04 10:59:18;;;;;;;0.50;0.30;;;;;;;26.16;23.68;99851.23;101253;297;22613;-35
2023/06/04 11:01:44;;;;;;;2.00;0.50;;;;;;;26.15;23.69;99850.70;101304;298;22672;-30
2023/06/04 11:04:22;;;;;;;4.90;0.80;;;;;;;26.71;23.91;99852.96;101302;298;22658;-35
2023/06/04 11:07:01;;;;;;;4.00;0.60;;;;;;;27.25;23.46;99847.02;101334;297;22589;-32
2023/06/04 11:09:27;;;;;;;2.70;0.60;;;;;;;27.48;22.97;99849.55;101248;298;22638;-32
2023/06/04 11:11:58;;;;;;;0.50;0.40;;;;;;;27.60;22.58;99848.45;101326;297;22886;-35
2023/06/04 11:14:24;;;;;;;0.90;0.60;;;;;;;27.71;22.31;99852.75;101293;297;22579;-38
2023/06/04 11:16:49;;;;;;;2.60;0.60;;;;;;;27.80;22.53;99848.82;101250;297;22629;-32
2023/06/04 11:19:15;;;;;;;0.60;0.40;;;;;;;27.38;23.10;99843.45;101273;297;22707;-31
2023/06/04 11:21:40;;;;;;;1.00;0.50;;;;;;;27.06;23.84;99841.92;101270;298;22584;-36
2023/06/04 11:24:06;;;;;;;1.60;0.50;;;;;;;26.79;23.79;99839.77;101335;297;22584;-31
2023/06/04 11:26:36;;;;;;;1.90;0.60;;;;;;;26.72;23.98;99840.56;101266;297;22668;-35
2023/06/04 11:29:05;;;;;;;3.30;0.40;;;;;;;26.32;24.24;99836.93;101211;297;22594;-35
2023/06/04 11:31:42;;;;;;;1.40;0.30;;;;;;;25.59;25.19;99839.59;100946;297;598425;-36
2023/06/04 11:34:07;;;;;;;0.70;0.40;;;;;;;25.66;24.90;99840.65;101278;298;22839;-36
2023/06/04 11:36:33;;;;;;;1.70;0.50;;;;;;;25.87;24.78;99839.80;101280;297;22822;-30
2023/06/04 11:39:01;;;;;;;1.00;0.50;;;;;;;25.56;24.78;99840.59;101290;297;22585;-35
2023/06/04 11:41:31;;;;;;;0.80;0.50;;;;;;;25.36;25.36;99838.13;101401;298;22593;-33
2023/06/04 11:43:57;;;;;;;0.70;0.40;;;;;;;25.65;25.18;99839.17;101324;298;22847;-36
2023/06/04 11:46:23;;;;;;;3.20;2.70;;;;;;;26.58;24.78;99834.81;101403;285;22574;-34
2023/06/04 11:48:52;;;;;;;25.20;22.80;;;;;;;27.37;23.95;99831.45;101253;297;23507;-32
2023/06/04 11:51:20;;;;;;;1.20;0.90;;;;;;;27.24;22.65;99829.86;101279;298;22698;-31
2023/06/04 11:53:45;;;;;;;5.20;0.70;;;;;;;26.48;22.57;99827.39;101359;297;22580;-31
2023/06/04 11:56:11;;;;;;;1.60;0.70;;;;;;;26.13;23.29;99829.69;101440;297;22596;-35
2023/06/04 11:58:40;;;;;;;1.30;0.80;;;;;;;26.40;23.22;99828.43;101314;297;22610;-31
2023/06/04 12:01:07;;;;;;;0.60;0.40;;;;;;;26.35;23.19;99827.70;101394;297;22673;-32
2023/06/04 12:03:37;;;;;;;3.40;0.40;;;;;;;26.45;22.53;99825.80;101353;297;22676;-31
2023/06/04 12:06:15;;;;;;;3.80;0.70;;;;;;;26.70;22.47;99831.33;101281;298;22578;-34
2023/06/04 12:08:47;;;;;;;4.10;3.50;;;;;;;26.67;21.73;99833.64;101352;297;22801;-32
2023/06/04 12:11:26;;;;;;;0.90;0.70;;;;;;;26.67;21.91;99833.35;101332;297;22745;-37
2023/06/04 12:13:54;;;;;;;2.20;0.50;;;;;;;26.96;21.81;99828.27;101391;297;22685;-33